Time;durP1;ratioP1;P1;durP2;ratioP2;P2;SDS_P1;SDS_P2;PMS_P1;PMS_P2;Temp;Humidity;BMP_temperature;BMP_pressure;BME280_temperature;BME280_humidity;BME280_pressure;Samples;Min_cycle;Max_cycle;Signal;HPM_P1;HPM_P2
2022/03/05 00:00:55;;;;;;;5.35;4.40;;;22.00;26.50;;;;;;5111295;28;20449;-69
2022/03/05 00:03:21;;;;;;;5.60;4.80;;;22.00;26.40;;;;;;5112328;28;20812;-69
2022/03/05 00:05:47;;;;;;;5.45;4.40;;;22.00;26.40;;;;;;5111927;28;20395;-69
2022/03/05 00:08:13;;;;;;;5.53;4.50;;;22.00;26.30;;;;;;5112212;28;20435;-69
2022/03/05 00:10:39;;;;;;;5.13;4.47;;;22.00;26.40;;;;;;5112217;28;20388;-69
2022/03/05 00:13:05;;;;;;;5.47;4.30;;;21.90;26.30;;;;;;5112362;28;20488;-69
2022/03/05 00:15:31;;;;;;;4.93;4.20;;;21.90;26.30;;;;;;5111044;28;20387;-69
2022/03/05 00:17:57;;;;;;;5.30;4.63;;;21.90;26.30;;;;;;5111806;28;20380;-69
2022/03/05 00:20:24;;;;;;;5.13;4.43;;;21.90;26.30;;;;;;5111939;28;20389;-71
2022/03/05 00:22:52;;;;;;;5.53;4.65;;;21.90;26.40;;;;;;5112088;28;20389;-69
2022/03/05 00:25:18;;;;;;;5.82;4.85;;;21.90;26.30;;;;;;5110403;28;20389;-71
2022/03/05 00:27:44;;;;;;;5.63;4.50;;;21.90;26.30;;;;;;5110660;28;20979;-69
2022/03/05 00:30:11;;;;;;;5.28;4.40;;;21.90;26.30;;;;;;5110242;28;20392;-69
2022/03/05 00:32:36;;;;;;;6.05;4.40;;;21.80;26.30;;;;;;5110689;28;20865;-70
2022/03/05 00:35:02;;;;;;;5.80;4.80;;;21.90;26.40;;;;;;5110726;28;20928;-69
2022/03/05 00:37:28;;;;;;;6.18;4.38;;;21.80;26.30;;;;;;5112000;28;20436;-70
2022/03/05 00:39:54;;;;;;;6.20;4.70;;;21.80;26.20;;;;;;5110104;28;20885;-70
2022/03/05 00:42:19;;;;;;;5.53;4.73;;;21.80;26.20;;;;;;5111793;28;20490;-69
2022/03/05 00:44:45;;;;;;;6.15;5.00;;;21.80;26.20;;;;;;5110679;28;20372;-69
2022/03/05 00:47:10;;;;;;;5.53;4.53;;;21.80;26.20;;;;;;5110332;28;20420;-70
2022/03/05 00:49:36;;;;;;;5.07;4.45;;;21.80;26.20;;;;;;5110492;28;20399;-69
2022/03/05 00:52:03;;;;;;;5.45;4.53;;;21.80;26.20;;;;;;5102607;28;20394;-71
2022/03/05 00:54:28;;;;;;;5.90;4.57;;;21.70;26.10;;;;;;5107369;28;20382;-71
2022/03/05 00:56:54;;;;;;;5.40;4.72;;;21.80;26.20;;;;;;5101726;28;20982;-70
2022/03/05 00:59:20;;;;;;;5.67;4.60;;;21.80;26.20;;;;;;5106913;28;20394;-70
2022/03/05 01:01:45;;;;;;;4.90;4.40;;;21.80;26.20;;;;;;5106914;28;20390;-71
2022/03/05 01:04:11;;;;;;;5.20;4.50;;;21.80;26.20;;;;;;5090862;28;20389;-69
2022/03/05 01:06:37;;;;;;;5.72;4.70;;;21.80;26.20;;;;;;5091191;28;20907;-69
2022/03/05 01:09:04;;;;;;;5.80;4.67;;;21.80;26.10;;;;;;5091398;28;20382;-71
2022/03/05 01:11:30;;;;;;;5.50;4.63;;;21.70;26.10;;;;;;5091195;28;20386;-70
2022/03/05 01:13:56;;;;;;;5.43;4.82;;;21.70;26.10;;;;;;5090816;28;20397;-69
2022/03/05 01:16:22;;;;;;;5.03;4.50;;;21.70;26.10;;;;;;5091335;28;20389;-71
2022/03/05 01:18:47;;;;;;;5.80;4.88;;;21.70;26.10;;;;;;5091153;28;20390;-70
2022/03/05 01:21:14;;;;;;;6.17;4.83;;;21.70;26.00;;;;;;5091239;28;20393;-70
2022/03/05 01:23:39;;;;;;;5.13;4.33;;;21.70;26.00;;;;;;5106761;28;20390;-71
2022/03/05 01:26:05;;;;;;;5.18;4.47;;;21.70;26.00;;;;;;5110117;28;20896;-69
2022/03/05 01:28:31;;;;;;;6.07;4.90;;;21.60;26.00;;;;;;5111520;28;20422;-70
2022/03/05 01:30:57;;;;;;;6.22;4.80;;;21.70;26.00;;;;;;5110240;28;20414;-70
2022/03/05 01:33:22;;;;;;;6.07;5.00;;;21.70;26.00;;;;;;5111505;28;20388;-71
2022/03/05 01:35:48;;;;;;;5.70;4.70;;;21.70;25.90;;;;;;5111480;28;20388;-70
2022/03/05 01:38:16;;;;;;;4.95;4.40;;;21.70;26.00;;;;;;5113822;28;20384;-71
2022/03/05 01:40:43;;;;;;;5.68;4.68;;;21.70;25.90;;;;;;5113928;28;20471;-69
2022/03/05 01:43:10;;;;;;;5.18;4.63;;;21.70;25.90;;;;;;5115274;28;20411;-70
2022/03/05 01:45:35;;;;;;;5.65;4.70;;;21.60;25.90;;;;;;5114968;27;20915;-70
2022/03/05 01:48:02;;;;;;;5.17;4.50;;;21.70;26.00;;;;;;5113061;28;20429;-70
2022/03/05 01:50:28;;;;;;;5.30;4.60;;;21.60;25.90;;;;;;5113650;28;20437;-71
2022/03/05 01:52:54;;;;;;;5.28;4.70;;;21.60;25.90;;;;;;5113672;28;20388;-71
2022/03/05 01:55:20;;;;;;;5.50;4.57;;;21.60;25.90;;;;;;5113722;28;20380;-70
2022/03/05 01:57:46;;;;;;;6.37;4.70;;;21.60;26.00;;;;;;5114955;28;20395;-71
2022/03/05 02:00:14;;;;;;;5.15;4.65;;;21.60;26.00;;;;;;5113270;28;20434;-70
2022/03/05 02:02:41;;;;;;;5.95;4.90;;;21.50;25.90;;;;;;5114667;28;20472;-70
2022/03/05 02:05:09;;;;;;;5.60;4.70;;;21.60;26.00;;;;;;5113149;28;20381;-70
2022/03/05 02:07:35;;;;;;;5.68;4.75;;;21.60;25.90;;;;;;5113375;28;20523;-70
2022/03/05 02:10:02;;;;;;;5.90;4.87;;;21.50;25.90;;;;;;5113002;28;20455;-71
2022/03/05 02:12:29;;;;;;;5.53;4.63;;;21.50;25.80;;;;;;5114563;28;20384;-70
2022/03/05 02:14:55;;;;;;;5.55;4.65;;;21.60;25.90;;;;;;5113273;28;20798;-70
2022/03/05 02:17:21;;;;;;;6.03;4.78;;;21.60;25.90;;;;;;5114590;28;20514;-70
2022/03/05 02:19:47;;;;;;;5.70;4.57;;;21.60;25.90;;;;;;5112934;28;20467;-70
2022/03/05 02:22:12;;;;;;;5.10;4.60;;;21.50;25.80;;;;;;5113976;27;20509;-70
2022/03/05 02:24:39;;;;;;;6.10;4.93;;;21.50;25.80;;;;;;5113079;28;20512;-70
2022/03/05 02:27:06;;;;;;;5.55;4.72;;;21.50;25.80;;;;;;5114386;28;20412;-71
2022/03/05 02:29:34;;;;;;;5.53;4.80;;;21.50;25.80;;;;;;5106042;28;20466;-70
2022/03/05 02:32:01;;;;;;;6.28;5.03;;;21.50;25.80;;;;;;5112587;28;20526;-71
2022/03/05 02:34:27;;;;;;;5.88;4.97;;;21.50;25.80;;;;;;5114252;28;20845;-70
2022/03/05 02:36:52;;;;;;;5.85;4.93;;;21.50;25.90;;;;;;5114118;27;20392;-70
2022/03/05 02:39:18;;;;;;;5.55;4.72;;;21.50;25.80;;;;;;5114149;28;20392;-70
2022/03/05 02:41:44;;;;;;;5.70;4.80;;;21.50;25.90;;;;;;5112813;28;20917;-71
2022/03/05 02:44:10;;;;;;;5.40;4.88;;;21.50;26.00;;;;;;5112351;28;20388;-70
2022/03/05 02:46:36;;;;;;;6.13;5.20;;;21.50;25.90;;;;;;5112526;28;20416;-70
2022/03/05 02:49:03;;;;;;;5.68;4.90;;;21.50;25.90;;;;;;5112226;28;20377;-70
2022/03/05 02:51:31;;;;;;;6.27;5.03;;;21.50;25.80;;;;;;5111863;28;20411;-70
2022/03/05 02:53:57;;;;;;;5.65;4.78;;;21.50;25.80;;;;;;5112277;28;20394;-70
2022/03/05 02:56:22;;;;;;;5.38;4.70;;;21.50;25.90;;;;;;5112306;28;20739;-69
2022/03/05 02:58:48;;;;;;;5.53;4.65;;;21.50;25.90;;;;;;5112406;28;20392;-70
2022/03/05 03:01:14;;;;;;;6.18;4.93;;;21.50;25.80;;;;;;5113753;28;20947;-71
2022/03/05 03:03:41;;;;;;;6.22;4.93;;;21.50;25.80;;;;;;5113195;28;20380;-71
2022/03/05 03:06:07;;;;;;;5.22;4.63;;;21.50;25.90;;;;;;5111920;28;20970;-70
2022/03/05 03:08:32;;;;;;;5.53;4.75;;;21.50;25.80;;;;;;5113575;28;20372;-70
2022/03/05 03:10:59;;;;;;;6.37;5.23;;;21.50;25.80;;;;;;5112227;28;20396;-71
2022/03/05 03:13:24;;;;;;;5.43;4.88;;;21.40;25.70;;;;;;5112040;28;20908;-70
2022/03/05 03:15:50;;;;;;;5.40;4.70;;;21.50;25.80;;;;;;5113056;28;20428;-71
2022/03/05 03:18:17;;;;;;;6.45;5.03;;;21.40;25.80;;;;;;5113032;28;20495;-70
2022/03/05 03:20:43;;;;;;;6.10;4.90;;;21.40;25.80;;;;;;5113371;28;20388;-71
2022/03/05 03:23:09;;;;;;;6.40;5.13;;;21.40;25.80;;;;;;5113328;28;20384;-71
2022/03/05 03:25:35;;;;;;;5.15;4.57;;;21.40;25.80;;;;;;5129001;27;20393;-71
2022/03/05 03:28:01;;;;;;;6.53;5.22;;;21.40;25.80;;;;;;5111499;28;20774;-71
2022/03/05 03:30:27;;;;;;;5.70;4.78;;;21.40;26.30;;;;;;5111923;28;20387;-70
2022/03/05 03:32:52;;;;;;;5.23;4.70;;;21.40;25.80;;;;;;5111815;28;20389;-71
2022/03/05 03:35:18;;;;;;;5.63;5.00;;;21.40;25.80;;;;;;5113141;28;20385;-71
2022/03/05 03:37:45;;;;;;;6.05;5.00;;;21.40;25.70;;;;;;5112866;28;20388;-71
2022/03/05 03:40:13;;;;;;;5.53;4.63;;;21.40;25.70;;;;;;5112486;28;20882;-70
2022/03/05 03:42:39;;;;;;;5.68;4.97;;;21.30;25.70;;;;;;5111600;28;20487;-70
2022/03/05 03:45:06;;;;;;;5.93;4.88;;;21.40;25.70;;;;;;5111683;28;20467;-71
2022/03/05 03:47:32;;;;;;;5.78;5.10;;;21.40;25.70;;;;;;5112509;28;20416;-72
2022/03/05 03:49:58;;;;;;;5.50;4.80;;;21.40;25.70;;;;;;5112569;28;20436;-71
2022/03/05 03:52:23;;;;;;;6.35;4.70;;;21.40;25.70;;;;;;5112208;28;20399;-71
2022/03/05 03:54:49;;;;;;;5.50;4.78;;;21.30;25.70;;;;;;5112546;28;20442;-71
2022/03/05 03:57:15;;;;;;;5.60;4.93;;;21.30;25.70;;;;;;5112640;28;20420;-70
2022/03/05 03:59:41;;;;;;;5.75;5.15;;;21.30;25.60;;;;;;5111849;28;20373;-70
2022/03/05 04:02:08;;;;;;;5.47;4.90;;;21.30;25.70;;;;;;5110734;28;20479;-70
2022/03/05 04:04:33;;;;;;;6.05;4.82;;;21.30;25.70;;;;;;5110991;28;20436;-70
2022/03/05 04:09:43;;;;;;;6.50;5.25;;;21.30;25.70;;;;;;5112586;28;20497;-71
2022/03/05 04:12:09;;;;;;;5.70;5.10;;;21.30;25.70;;;;;;5110684;28;20396;-71
2022/03/05 04:14:36;;;;;;;5.90;4.93;;;21.30;25.80;;;;;;5112277;28;20742;-70
2022/03/05 04:17:01;;;;;;;5.95;4.85;;;21.30;25.70;;;;;;5112029;28;20385;-71
2022/03/05 04:19:27;;;;;;;6.40;5.43;;;21.20;25.70;;;;;;5112352;28;20380;-71
2022/03/05 04:21:53;;;;;;;5.90;5.00;;;21.30;25.80;;;;;;5110858;28;20479;-70
2022/03/05 04:24:19;;;;;;;5.90;4.90;;;21.20;25.70;;;;;;5111477;28;20412;-71
2022/03/05 04:26:44;;;;;;;5.23;4.73;;;21.20;25.70;;;;;;5111975;28;20489;-71
2022/03/05 04:29:10;;;;;;;5.13;4.50;;;21.20;25.70;;;;;;5110615;28;20467;-70
2022/03/05 04:31:35;;;;;;;6.05;4.70;;;21.20;25.70;;;;;;5110787;28;20388;-70
2022/03/05 04:34:01;;;;;;;6.13;5.27;;;21.20;25.70;;;;;;5111909;28;20387;-70
2022/03/05 04:36:27;;;;;;;5.80;4.93;;;21.20;25.70;;;;;;5111807;28;20380;-71
2022/03/05 04:38:52;;;;;;;5.70;5.00;;;21.20;25.70;;;;;;5111904;28;20391;-70
2022/03/05 04:41:18;;;;;;;5.72;4.90;;;21.20;25.70;;;;;;5112024;28;20746;-71
2022/03/05 04:43:44;;;;;;;5.30;4.78;;;21.20;25.60;;;;;;5111938;28;20402;-70
2022/03/05 04:46:11;;;;;;;5.60;5.00;;;21.20;25.70;;;;;;5109972;28;20404;-70
2022/03/05 04:48:37;;;;;;;6.03;4.97;;;21.20;25.60;;;;;;5111814;28;20388;-70
2022/03/05 04:51:02;;;;;;;5.20;4.70;;;21.10;25.70;;;;;;5111912;28;20387;-71
2022/03/05 04:53:28;;;;;;;5.40;4.53;;;21.20;25.80;;;;;;5111827;28;20780;-70
2022/03/05 04:55:54;;;;;;;5.55;4.93;;;21.10;25.70;;;;;;5127649;28;20384;-71
2022/03/05 04:58:19;;;;;;;5.83;4.83;;;21.10;25.70;;;;;;5103485;28;20443;-70
2022/03/05 05:00:45;;;;;;;6.30;5.10;;;21.10;25.70;;;;;;5091310;28;20386;-70
2022/03/05 05:03:10;;;;;;;5.43;4.88;;;21.10;25.70;;;;;;5090140;28;20390;-71
2022/03/05 05:05:36;;;;;;;5.80;4.97;;;21.10;25.70;;;;;;5091411;28;20378;-70
2022/03/05 05:08:02;;;;;;;5.63;4.75;;;21.10;25.60;;;;;;5095902;28;20412;-70
2022/03/05 05:10:27;;;;;;;5.70;5.00;;;21.10;25.60;;;;;;5111562;28;20380;-71
2022/03/05 05:12:53;;;;;;;5.75;4.95;;;21.10;25.70;;;;;;5115548;28;20392;-70
2022/03/05 05:15:19;;;;;;;5.90;4.90;;;21.10;25.60;;;;;;5114555;28;20393;-71
2022/03/05 05:17:44;;;;;;;5.55;4.75;;;21.10;25.70;;;;;;5115730;28;20388;-71
2022/03/05 05:20:11;;;;;;;5.57;4.78;;;21.10;25.70;;;;;;5115332;28;20396;-71
2022/03/05 05:22:37;;;;;;;6.13;5.50;;;21.10;25.60;;;;;;5114335;28;20442;-71
2022/03/05 05:25:03;;;;;;;5.70;4.80;;;21.10;25.70;;;;;;5114284;28;20388;-71
2022/03/05 05:27:33;;;;;;;5.68;4.85;;;21.10;25.60;;;;;;5115342;28;20480;-71
2022/03/05 05:29:59;;;;;;;5.97;4.50;;;21.10;25.60;;;;;;5114270;28;20388;-71
2022/03/05 05:32:25;;;;;;;5.80;5.20;;;21.00;25.60;;;;;;5113487;28;20487;-71
2022/03/05 05:34:50;;;;;;;5.47;4.80;;;21.00;25.70;;;;;;5115363;28;20388;-71
2022/03/05 05:37:16;;;;;;;5.20;4.70;;;21.00;25.70;;;;;;5115073;28;20422;-71
2022/03/05 05:39:42;;;;;;;6.07;5.03;;;21.00;25.60;;;;;;5115230;28;20441;-71
2022/03/05 05:42:07;;;;;;;5.55;4.72;;;21.00;25.70;;;;;;5114823;28;20407;-71
2022/03/05 05:44:33;;;;;;;5.33;4.60;;;21.00;25.70;;;;;;5115245;28;20466;-70
2022/03/05 05:46:59;;;;;;;5.13;4.60;;;21.00;25.60;;;;;;5114924;28;20924;-70
2022/03/05 05:49:24;;;;;;;5.05;4.50;;;21.00;25.70;;;;;;5115173;28;20392;-71
2022/03/05 05:51:50;;;;;;;5.23;4.43;;;21.00;25.70;;;;;;5115072;28;20436;-70
2022/03/05 05:54:16;;;;;;;5.90;4.78;;;21.00;25.70;;;;;;5130482;27;21025;-70
2022/03/05 05:56:42;;;;;;;5.65;4.72;;;21.00;25.70;;;;;;5114898;28;20384;-71
2022/03/05 05:59:08;;;;;;;5.50;4.67;;;21.00;25.60;;;;;;5115024;28;20396;-71
2022/03/05 06:01:34;;;;;;;5.15;4.50;;;21.00;25.60;;;;;;5114899;28;20437;-69
2022/03/05 06:04:00;;;;;;;4.95;4.40;;;21.00;25.60;;;;;;5114885;28;20877;-71
2022/03/05 06:06:26;;;;;;;5.03;4.53;;;20.90;25.60;;;;;;5114313;28;20426;-71
2022/03/05 06:08:51;;;;;;;5.63;4.60;;;20.90;25.60;;;;;;5114385;28;20387;-70
2022/03/05 06:11:17;;;;;;;5.68;4.90;;;20.90;25.70;;;;;;5114844;28;20388;-71
2022/03/05 06:13:43;;;;;;;6.82;4.68;;;20.90;25.70;;;;;;5116584;28;20376;-70
2022/03/05 06:16:09;;;;;;;7.47;5.20;;;21.00;26.30;;;;;;5114623;28;20396;-67
2022/03/05 06:18:34;;;;;;;8.23;5.40;;;21.00;26.40;;;;;;5115048;28;20389;-68
2022/03/05 06:21:00;;;;;;;7.45;5.20;;;20.90;25.70;;;;;;5115062;28;20404;-68
2022/03/05 06:23:26;;;;;;;8.33;5.40;;;20.80;26.20;;;;;;5116208;27;20372;-68
2022/03/05 06:25:52;;;;;;;7.55;5.25;;;20.70;26.00;;;;;;5115216;28;20384;-68
2022/03/05 06:28:18;;;;;;;8.40;5.80;;;20.70;26.30;;;;;;5115451;28;20392;-68
2022/03/05 06:30:44;;;;;;;7.32;5.30;;;20.60;26.40;;;;;;5113133;28;20393;-68
2022/03/05 06:33:10;;;;;;;7.60;5.50;;;20.60;26.60;;;;;;5114520;28;20394;-68
2022/03/05 06:35:35;;;;;;;8.52;5.60;;;20.50;27.00;;;;;;5114271;28;20742;-68
2022/03/05 06:38:01;;;;;;;7.60;6.17;;;20.60;26.40;;;;;;5114221;28;20420;-68
2022/03/05 06:40:27;;;;;;;8.93;6.55;;;20.70;26.50;;;;;;5112465;28;20392;-68
2022/03/05 06:42:54;;;;;;;9.77;6.90;;;20.70;26.40;;;;;;5112823;28;20525;-68
2022/03/05 06:45:21;;;;;;;8.70;6.68;;;20.80;26.30;;;;;;5114037;28;20853;-67
2022/03/05 06:47:46;;;;;;;7.97;6.72;;;20.80;26.60;;;;;;5113651;28;20412;-67
2022/03/05 06:50:12;;;;;;;10.80;6.90;;;20.80;26.80;;;;;;5113245;27;20485;-67
2022/03/05 06:52:38;;;;;;;8.50;6.33;;;20.80;27.00;;;;;;5113938;28;20380;-67
2022/03/05 06:55:05;;;;;;;8.32;6.18;;;20.90;27.10;;;;;;5113956;28;20410;-67
2022/03/05 06:57:30;;;;;;;7.10;6.17;;;20.90;27.10;;;;;;5113502;28;20888;-68
2022/03/05 06:59:56;;;;;;;8.35;6.28;;;20.90;27.30;;;;;;5097835;28;20449;-67
2022/03/05 07:02:22;;;;;;;9.02;6.10;;;20.90;27.20;;;;;;5092779;28;20386;-67
2022/03/05 07:04:49;;;;;;;9.90;5.80;;;21.00;27.30;;;;;;5093328;28;20447;-67
2022/03/05 07:07:15;;;;;;;8.77;6.03;;;21.00;27.30;;;;;;5093046;28;20417;-68
2022/03/05 07:09:40;;;;;;;8.90;6.10;;;21.10;27.50;;;;;;5093065;28;20390;-68
2022/03/05 07:12:06;;;;;;;9.65;6.25;;;21.10;27.40;;;;;;5093187;28;20875;-68
2022/03/05 07:14:32;;;;;;;7.70;6.22;;;21.20;27.30;;;;;;5092728;28;20725;-67
2022/03/05 07:16:58;;;;;;;8.05;6.28;;;21.20;27.30;;;;;;5091820;28;20409;-68
2022/03/05 07:19:24;;;;;;;7.68;6.20;;;21.30;27.20;;;;;;5092972;28;20382;-67
2022/03/05 07:21:50;;;;;;;8.05;6.10;;;21.40;27.30;;;;;;5092878;28;20398;-67
2022/03/05 07:24:16;;;;;;;9.32;6.43;;;21.40;27.00;;;;;;5091167;28;20390;-68
2022/03/05 07:26:41;;;;;;;8.50;6.70;;;21.50;27.20;;;;;;5092599;28;20810;-68
2022/03/05 07:29:07;;;;;;;8.93;6.13;;;21.50;26.90;;;;;;5092755;28;20863;-67
2022/03/05 07:31:33;;;;;;;10.90;6.43;;;21.50;27.00;;;;;;5092744;28;20382;-67
2022/03/05 07:33:58;;;;;;;10.52;5.97;;;21.60;27.30;;;;;;5092524;28;20443;-67
2022/03/05 07:36:24;;;;;;;9.90;5.53;;;21.60;27.30;;;;;;5090865;28;20896;-66
2022/03/05 07:38:51;;;;;;;8.40;5.20;;;21.60;27.60;;;;;;5093084;28;20795;-67
2022/03/05 07:41:17;;;;;;;7.85;5.65;;;21.60;27.60;;;;;;5092583;28;20944;-67
2022/03/05 07:43:44;;;;;;;8.95;5.38;;;21.60;27.60;;;;;;5092221;28;20753;-67
2022/03/05 07:46:09;;;;;;;7.22;5.40;;;21.60;27.70;;;;;;5090051;28;20397;-68
2022/03/05 07:48:35;;;;;;;7.55;5.28;;;21.60;27.80;;;;;;5092481;28;20399;-66
2022/03/05 07:51:02;;;;;;;8.77;5.30;;;21.50;27.70;;;;;;5112208;28;20384;-66
2022/03/05 07:53:28;;;;;;;7.85;4.80;;;21.50;27.70;;;;;;5087355;28;20390;-67
2022/03/05 07:55:54;;;;;;;9.25;5.10;;;21.50;27.60;;;;;;5086048;28;20891;-67
2022/03/05 07:58:21;;;;;;;9.15;5.25;;;21.50;27.50;;;;;;5083745;28;20478;-69
2022/03/05 08:00:46;;;;;;;7.00;4.80;;;21.50;27.40;;;;;;5090694;28;20856;-69
2022/03/05 08:03:25;;;;;;;7.87;4.70;;;21.50;27.10;;;;;;5104134;28;20533;-70
2022/03/05 08:05:51;;;;;;;6.72;4.88;;;21.60;27.20;;;;;;5109649;28;20401;-70
2022/03/05 08:08:16;;;;;;;7.97;4.60;;;21.60;27.10;;;;;;5112595;28;20404;-69
2022/03/05 08:10:42;;;;;;;7.97;4.80;;;21.60;27.10;;;;;;5112454;28;20383;-70
2022/03/05 08:13:08;;;;;;;8.07;4.70;;;21.60;27.00;;;;;;5112165;28;20414;-71
2022/03/05 08:15:34;;;;;;;7.80;4.97;;;21.60;26.90;;;;;;5110688;28;20397;-70
2022/03/05 08:18:01;;;;;;;8.65;4.57;;;21.60;26.80;;;;;;5111654;28;20420;-70
2022/03/05 08:20:29;;;;;;;6.77;4.60;;;21.60;27.00;;;;;;5110313;28;20730;-69
2022/03/05 08:22:55;;;;;;;5.82;4.18;;;21.70;26.80;;;;;;5110765;28;20380;-70
2022/03/05 08:25:21;;;;;;;6.22;4.38;;;21.70;26.70;;;;;;5112086;28;20869;-70
2022/03/05 08:27:47;;;;;;;7.22;4.70;;;21.80;26.60;;;;;;5099664;28;20413;-70
2022/03/05 08:30:17;;;;;;;5.35;4.07;;;21.80;26.50;;;;;;5109490;28;20475;-70
2022/03/05 08:32:43;;;;;;;6.22;4.20;;;21.90;26.50;;;;;;5112036;28;20400;-70
2022/03/05 08:35:10;;;;;;;5.63;4.00;;;21.90;26.50;;;;;;5110547;28;20390;-70
2022/03/05 08:37:38;;;;;;;5.22;4.10;;;21.90;26.40;;;;;;5110526;28;20400;-70
2022/03/05 08:40:07;;;;;;;6.32;3.95;;;21.90;26.50;;;;;;5110674;28;20471;-70
2022/03/05 08:42:32;;;;;;;6.30;4.10;;;22.00;26.40;;;;;;5106982;28;20404;-70
2022/03/05 08:44:59;;;;;;;5.68;4.10;;;22.00;26.40;;;;;;5110637;28;20445;-70
2022/03/05 08:47:25;;;;;;;5.63;4.00;;;22.00;26.30;;;;;;5109660;28;20416;-70
2022/03/05 08:49:50;;;;;;;4.57;3.85;;;22.00;26.40;;;;;;5109999;28;20396;-70
2022/03/05 08:52:16;;;;;;;5.57;4.20;;;22.00;26.30;;;;;;5103691;28;20414;-70
2022/03/05 08:54:42;;;;;;;4.93;3.70;;;22.10;26.30;;;;;;5090118;28;20392;-70
2022/03/05 08:57:11;;;;;;;4.28;3.70;;;22.10;26.30;;;;;;5090089;28;20492;-70
2022/03/05 08:59:38;;;;;;;4.95;3.67;;;22.10;26.30;;;;;;5106905;28;20876;-70
2022/03/05 09:02:05;;;;;;;5.10;4.00;;;22.10;26.30;;;;;;5091396;28;20421;-70
2022/03/05 09:04:31;;;;;;;5.40;4.20;;;22.10;26.20;;;;;;5097798;28;20873;-70
2022/03/05 09:06:57;;;;;;;6.35;4.07;;;22.10;26.20;;;;;;5127057;28;20411;-70
2022/03/05 09:09:23;;;;;;;4.78;3.83;;;22.10;26.20;;;;;;5110088;28;20400;-70
2022/03/05 09:11:49;;;;;;;4.77;3.50;;;22.20;26.20;;;;;;5110044;28;20734;-70
2022/03/05 09:14:14;;;;;;;4.10;3.47;;;22.20;26.60;;;;;;5109815;28;20890;-70
2022/03/05 09:16:40;;;;;;;4.03;3.30;;;22.20;26.10;;;;;;5111248;28;20381;-70
2022/03/05 09:19:07;;;;;;;4.50;3.67;;;22.20;26.00;;;;;;5110334;28;20449;-70
2022/03/05 09:21:35;;;;;;;4.60;3.67;;;22.30;26.10;;;;;;5109906;28;20463;-70
2022/03/05 09:24:02;;;;;;;4.25;3.28;;;22.30;26.00;;;;;;5109913;28;20436;-70
2022/03/05 09:26:27;;;;;;;4.03;3.00;;;22.30;26.00;;;;;;5109221;28;20419;-70
2022/03/05 09:28:53;;;;;;;4.82;3.80;;;22.30;26.00;;;;;;5111449;28;20858;-70
2022/03/05 09:31:19;;;;;;;4.07;3.50;;;22.30;25.90;;;;;;5111210;28;20373;-69
2022/03/05 09:33:45;;;;;;;6.35;3.90;;;22.40;26.70;;;;;;5109751;28;20937;-70
2022/03/05 09:36:12;;;;;;;6.13;4.10;;;22.60;26.10;;;;;;5109982;28;20479;-69
2022/03/05 09:38:38;;;;;;;7.10;4.15;;;22.70;26.00;;;;;;5109901;28;20380;-69
2022/03/05 09:41:06;;;;;;;5.53;4.10;;;22.80;25.80;;;;;;5109903;28;20396;-70
2022/03/05 09:43:32;;;;;;;6.47;4.00;;;22.90;25.60;;;;;;5109375;28;20391;-70
2022/03/05 09:46:01;;;;;;;5.47;3.92;;;22.90;25.40;;;;;;5109747;28;20420;-71
2022/03/05 09:48:28;;;;;;;5.93;3.80;;;23.00;25.30;;;;;;5109339;28;20929;-70
2022/03/05 09:50:55;;;;;;;5.50;3.85;;;23.10;25.20;;;;;;5109605;28;20376;-69
2022/03/05 09:53:26;;;;;;;7.15;4.00;;;23.10;25.20;;;;;;5108307;28;20389;-69
2022/03/05 09:55:51;;;;;;;6.20;3.97;;;23.20;25.10;;;;;;5096645;28;20430;-69
2022/03/05 09:58:17;;;;;;;5.82;3.70;;;23.30;25.00;;;;;;5090081;28;20811;-70
2022/03/05 10:00:44;;;;;;;4.97;3.50;;;23.30;25.00;;;;;;5092972;28;20736;-70
2022/03/05 10:03:13;;;;;;;4.88;3.70;;;23.40;25.00;;;;;;5094549;28;20383;-70
2022/03/05 10:05:39;;;;;;;4.50;3.67;;;23.40;25.00;;;;;;5094392;28;20388;-69
2022/03/05 10:08:12;;;;;;;5.55;3.70;;;23.50;24.90;;;;;;5094020;28;20501;-69
2022/03/05 10:10:52;;;;;;;5.70;3.80;;;23.60;25.00;;;;;;5092282;28;20952;-70
2022/03/05 10:13:26;;;;;;;4.45;3.60;;;23.60;24.90;;;;;;5094041;28;20891;-69
2022/03/05 10:15:54;;;;;;;6.43;4.00;;;23.60;24.90;;;;;;5092894;28;20429;-69
2022/03/05 10:18:34;;;;;;;6.20;4.10;;;23.70;24.90;;;;;;5092599;28;20429;-70
2022/03/05 10:21:08;;;;;;;5.85;3.88;;;23.70;24.90;;;;;;5093968;28;20879;-69
2022/03/05 10:23:36;;;;;;;6.00;3.80;;;23.80;24.80;;;;;;5092500;28;20439;-71
2022/03/05 10:26:05;;;;;;;5.43;3.73;;;23.80;24.80;;;;;;5093791;28;20394;-70
2022/03/05 10:28:31;;;;;;;4.57;3.63;;;23.90;25.00;;;;;;5092058;28;20405;-69
2022/03/05 10:31:04;;;;;;;5.70;3.80;;;24.00;25.00;;;;;;5093993;28;20534;-69
2022/03/05 10:33:38;;;;;;;4.75;3.65;;;24.00;25.00;;;;;;5092493;28;20398;-69
2022/03/05 10:36:11;;;;;;;4.97;3.65;;;24.10;24.90;;;;;;5093638;28;20414;-72
2022/03/05 10:38:44;;;;;;;4.75;3.38;;;24.20;25.00;;;;;;5092015;28;20738;-69
2022/03/05 10:41:10;;;;;;;4.15;3.50;;;24.20;24.90;;;;;;5093742;28;20790;-70
2022/03/05 10:43:36;;;;;;;3.80;3.28;;;24.30;25.00;;;;;;5093749;28;20933;-69
2022/03/05 10:46:01;;;;;;;4.18;3.60;;;24.30;24.90;;;;;;5093505;28;20414;-69
2022/03/05 10:48:36;;;;;;;5.03;3.50;;;24.40;24.90;;;;;;5091628;28;20394;-68
2022/03/05 10:51:11;;;;;;;4.10;3.45;;;24.50;24.80;;;;;;5109297;28;20808;-69
2022/03/05 10:53:47;;;;;;;5.40;3.30;;;24.60;24.80;;;;;;5093397;28;20393;-69
2022/03/05 10:56:26;;;;;;;4.68;3.85;;;24.60;24.80;;;;;;5092029;28;20422;-69
2022/03/05 10:59:09;;;;;;;5.03;3.40;;;24.70;24.80;;;;;;5093109;28;20735;-69
2022/03/05 11:01:41;;;;;;;5.82;4.30;;;24.70;24.70;;;;;;5091140;28;20495;-69
2022/03/05 11:04:08;;;;;;;8.15;4.40;;;24.70;24.20;;;;;;5091650;28;20386;-70
2022/03/05 11:06:37;;;;;;;5.85;4.18;;;24.70;24.00;;;;;;5091083;28;20796;-69
2022/03/05 11:09:04;;;;;;;5.13;3.70;;;24.70;24.70;;;;;;5090470;28;20914;-69
2022/03/05 11:11:31;;;;;;;9.30;4.22;;;24.80;24.60;;;;;;5091356;28;20945;-69
2022/03/05 11:13:58;;;;;;;4.60;3.60;;;24.80;25.10;;;;;;5092862;28;20868;-69
2022/03/05 11:16:25;;;;;;;7.28;4.18;;;24.90;24.70;;;;;;5092322;28;20402;-69
2022/03/05 11:18:53;;;;;;;8.13;3.97;;;24.90;24.50;;;;;;5093429;27;20406;-69
2022/03/05 11:21:19;;;;;;;7.18;3.58;;;25.00;24.60;;;;;;5108847;28;20935;-68
2022/03/05 11:23:45;;;;;;;4.72;3.20;;;25.10;25.10;;;;;;5094721;28;20389;-70
2022/03/05 11:26:13;;;;;;;7.85;3.40;;;25.10;25.10;;;;;;5110701;28;20749;-70
2022/03/05 11:28:50;;;;;;;4.93;3.30;;;25.20;25.20;;;;;;5111473;28;20400;-69
2022/03/05 11:31:22;;;;;;;6.28;3.50;;;25.30;24.90;;;;;;5109891;28;20465;-70
2022/03/05 11:33:49;;;;;;;7.43;3.20;;;25.40;25.00;;;;;;5110038;28;20396;-69
2022/03/05 11:36:24;;;;;;;3.70;3.10;;;25.50;25.00;;;;;;5111383;28;20411;-68
2022/03/05 11:39:23;;;;;;;4.93;3.00;;;25.60;25.10;;;;;;5110333;28;20403;-71
2022/03/05 11:41:50;;;;;;;4.38;3.20;;;25.80;25.10;;;;;;5108417;28;20392;-70
2022/03/05 11:44:18;;;;;;;3.85;3.13;;;25.80;25.00;;;;;;5111142;28;20405;-71
2022/03/05 11:46:45;;;;;;;5.05;3.13;;;25.80;25.10;;;;;;5109862;28;20484;-71
2022/03/05 11:49:12;;;;;;;4.65;3.35;;;26.00;25.10;;;;;;5110981;28;20488;-70
2022/03/05 11:51:52;;;;;;;3.97;3.05;;;26.00;24.90;;;;;;5110554;28;20383;-71
2022/03/05 11:54:18;;;;;;;5.40;3.00;;;26.10;24.90;;;;;;5109949;28;20388;-69
2022/03/05 11:57:08;;;;;;;3.90;2.72;;;26.10;24.90;;;;;;5111443;28;20437;-70
2022/03/05 11:59:38;;;;;;;4.40;2.80;;;26.20;24.80;;;;;;5108333;28;20422;-70
2022/03/05 12:02:04;;;;;;;5.75;2.90;;;26.20;24.90;;;;;;5106756;28;20399;-69
2022/03/05 12:04:31;;;;;;;3.22;2.70;;;26.30;24.80;;;;;;5108625;28;20385;-68
2022/03/05 12:06:57;;;;;;;4.78;2.95;;;26.20;24.50;;;;;;5109094;28;20489;-68
2022/03/05 12:09:44;;;;;;;3.30;2.70;;;26.20;24.50;;;;;;5110221;28;20881;-68
2022/03/05 12:12:12;;;;;;;4.72;2.50;;;26.10;24.50;;;;;;5109471;28;20382;-70
2022/03/05 12:14:59;;;;;;;3.83;2.90;;;26.10;24.60;;;;;;5110062;28;20395;-68
2022/03/05 12:17:33;;;;;;;4.82;2.72;;;26.00;24.40;;;;;;5107069;28;20384;-71
2022/03/05 12:20:00;;;;;;;3.70;2.50;;;26.00;24.60;;;;;;5106636;28;20388;-67
2022/03/05 12:22:25;;;;;;;4.28;2.50;;;26.00;25.00;;;;;;5108482;28;20449;-68
2022/03/05 12:24:51;;;;;;;3.00;2.50;;;25.90;24.70;;;;;;5104355;28;20444;-69
2022/03/05 12:27:19;;;;;;;4.67;2.63;;;25.90;24.90;;;;;;5103479;28;20439;-69
2022/03/05 12:29:48;;;;;;;4.10;2.80;;;25.90;24.80;;;;;;5110611;28;20385;-68
2022/03/05 12:32:15;;;;;;;3.22;2.50;;;25.70;25.20;;;;;;5112001;28;20516;-69
2022/03/05 12:34:40;;;;;;;4.07;2.40;;;25.70;24.90;;;;;;5111434;28;20387;-69
2022/03/05 12:37:07;;;;;;;3.67;2.17;;;25.70;25.10;;;;;;5110509;28;20483;-70
2022/03/05 12:39:33;;;;;;;3.63;2.58;;;25.60;25.20;;;;;;5109149;28;20384;-68
2022/03/05 12:41:59;;;;;;;3.30;2.55;;;25.50;25.10;;;;;;5109831;28;20487;-69
2022/03/05 12:44:25;;;;;;;3.60;2.30;;;25.50;25.10;;;;;;5111879;28;20750;-68
2022/03/05 12:46:50;;;;;;;3.08;2.33;;;25.50;25.10;;;;;;5111283;28;20878;-68